createdAt,value
2022-11-03T00:04:47.171Z,9.87
2022-11-03T00:09:50.598Z,11.70
2022-11-03T00:14:55.246Z,11.07
2022-11-03T00:19:58.543Z,13.07
2022-11-03T00:25:02.052Z,13.50
2022-11-03T00:30:08.013Z,11.67
2022-11-03T00:35:11.331Z,11.65
2022-11-03T00:40:14.694Z,10.60
2022-11-03T00:45:19.351Z,11.43
2022-11-03T00:50:22.625Z,10.45
2022-11-03T00:55:25.900Z,11.20
2022-11-03T01:00:30.583Z,11.63
2022-11-03T01:11:11.676Z,10.75
2022-11-03T01:16:16.320Z,10.70
2022-11-03T01:21:19.733Z,12.63
2022-11-03T01:26:23.231Z,10.83
2022-11-03T01:31:29.029Z,12.48
2022-11-03T01:36:32.526Z,11.70
2022-11-03T01:41:35.815Z,10.60
2022-11-03T01:46:44.148Z,11.93
2022-11-03T01:51:51.350Z,11.23
2022-11-03T01:56:55.833Z,12.32
2022-11-03T02:02:00.912Z,12.43
2022-11-03T02:07:18.363Z,12.80
2022-11-03T02:12:23.259Z,13.60
2022-11-03T02:17:30.129Z,12.23
2022-11-03T02:22:49.996Z,11.83
2022-11-03T02:27:54.724Z,13.10
2022-11-03T02:33:04.768Z,12.63
2022-11-03T02:38:13.339Z,12.30
2022-11-03T02:43:19.544Z,12.20
2022-11-03T02:48:23.005Z,11.73
2022-11-03T02:53:29.743Z,11.77
2022-11-03T02:58:40.678Z,10.63
2022-11-03T03:03:49.257Z,10.73
2022-11-03T03:08:57.552Z,11.23
2022-11-03T03:14:02.242Z,10.90
2022-11-03T03:19:11.448Z,12.57
2022-11-03T03:24:20.847Z,13.77
2022-11-03T03:29:29.419Z,12.30
2022-11-03T03:34:36.507Z,13.57
2022-11-03T03:39:43.177Z,12.07
2022-11-03T03:44:48.309Z,14.45
2022-11-03T03:49:51.674Z,14.73
2022-11-03T03:54:55.750Z,13.23
2022-11-03T04:00:00.415Z,13.85
2022-11-03T04:05:03.748Z,16.55
2022-11-03T04:10:08.147Z,14.13
2022-11-03T04:15:31.727Z,11.93
2022-11-03T04:20:52.632Z,12.30
2022-11-03T04:25:57.509Z,12.50
2022-11-03T04:31:02.350Z,11.27
2022-11-03T04:36:13.503Z,11.88
2022-11-03T04:41:19.481Z,13.13
2022-11-03T04:46:27.716Z,12.70
2022-11-03T04:51:34.320Z,13.65
2022-11-03T04:56:37.604Z,16.05
2022-11-03T05:01:43.903Z,13.65
2022-11-03T05:06:51.444Z,12.70
2022-11-03T05:11:54.905Z,10.68
2022-11-03T05:17:01.218Z,12.50
2022-11-03T05:22:06.355Z,11.30
2022-11-03T05:27:17.717Z,11.18
2022-11-03T05:32:25.539Z,11.70
2022-11-03T05:37:30.703Z,13.98
2022-11-03T05:42:37.007Z,11.25
2022-11-03T05:47:42.119Z,13.75
2022-11-03T05:52:46.934Z,14.13
2022-11-03T05:57:50.203Z,17.30
2022-11-03T06:02:55.370Z,15.38
2022-11-03T06:08:02.225Z,13.02
2022-11-03T06:13:15.119Z,12.30
2022-11-03T06:18:22.808Z,12.07
2022-11-03T06:23:27.242Z,11.75
2022-11-03T06:28:36.862Z,11.30
2022-11-03T06:33:41.639Z,11.13
2022-11-03T06:38:50.911Z,9.20
2022-11-03T06:43:54.273Z,9.25
2022-11-03T06:49:00.329Z,9.63
2022-11-03T06:54:09.831Z,9.43
2022-11-03T06:59:15.443Z,9.07
2022-11-03T07:04:22.772Z,8.35
2022-11-03T07:09:27.464Z,7.85
2022-11-03T07:14:33.215Z,6.90
2022-11-03T07:19:40.992Z,6.05
2022-11-03T07:24:48.135Z,5.83
2022-11-03T07:29:52.777Z,6.73
2022-11-03T07:35:05.751Z,7.32
2022-11-03T07:40:14.545Z,8.30
2022-11-03T08:06:02.717Z,8.55
2022-11-03T08:11:08.471Z,7.05
2022-11-03T08:16:11.880Z,5.10
2022-11-03T08:21:18.589Z,4.53
2022-11-03T08:26:22.895Z,5.20
2022-11-03T08:31:26.240Z,3.90
2022-11-03T08:36:31.241Z,5.13
2022-11-03T08:41:34.553Z,3.10
2022-11-03T08:46:37.892Z,3.10
2022-11-03T08:51:44.564Z,3.10
2022-11-03T08:56:48.974Z,3.20
2022-11-03T09:12:01.707Z,2.30
2022-11-03T09:17:05.078Z,2.17
2022-11-03T09:22:09.771Z,1.98
2022-11-03T09:27:13.022Z,1.77
2022-11-03T09:32:21.838Z,2.28
2022-11-03T09:37:28.614Z,1.75
2022-11-03T09:42:34.542Z,1.80
2022-11-03T09:47:40.827Z,1.90
2022-11-03T10:08:06.651Z,2.20
2022-11-03T10:38:36.404Z,2.13
2022-11-03T10:43:40.473Z,2.30
2022-11-03T10:48:43.956Z,2.40
2022-11-03T10:53:48.667Z,2.38
2022-11-03T10:58:52.590Z,2.45
2022-11-03T11:03:56.491Z,2.07
2022-11-03T11:09:04.918Z,2.38
2022-11-03T11:14:37.129Z,2.40
2022-11-03T11:20:25.571Z,1.92
2022-11-03T11:26:14.845Z,2.40
2022-11-03T11:31:32.563Z,2.10
2022-11-03T11:36:36.403Z,2.20
2022-11-03T11:42:13.618Z,2.07
2022-11-03T11:47:51.701Z,2.00
2022-11-03T11:53:03.835Z,2.45
2022-11-03T11:58:26.158Z,2.70
2022-11-03T12:03:39.166Z,2.20
2022-11-03T12:08:43.835Z,2.70
2022-11-03T12:13:51.633Z,2.10
2022-11-03T12:18:55.439Z,2.30
2022-11-03T12:23:58.804Z,2.60
2022-11-03T12:29:03.463Z,2.35
2022-11-03T12:34:06.757Z,2.42
2022-11-03T12:39:10.064Z,2.58
2022-11-03T12:44:14.815Z,2.90
2022-11-03T12:49:18.466Z,2.85
2022-11-03T12:54:22.863Z,2.67
2022-11-03T12:59:27.627Z,2.90
2022-11-03T13:04:30.938Z,3.58
2022-11-03T13:09:36.130Z,2.50
2022-11-03T13:14:44.520Z,2.83
2022-11-03T13:19:54.431Z,3.17
2022-11-03T13:24:58.192Z,2.83
2022-11-03T13:30:03.010Z,3.10
2022-11-03T13:35:12.384Z,3.03
2022-11-03T13:45:42.469Z,3.15
2022-11-03T13:50:46.051Z,3.05
2022-11-03T13:55:49.619Z,3.80
2022-11-03T14:00:54.643Z,3.40
2022-11-03T14:05:57.990Z,3.60
2022-11-03T14:11:21.526Z,3.90
2022-11-03T14:16:26.355Z,3.40
2022-11-03T14:21:29.686Z,3.67
2022-11-03T14:26:42.358Z,4.53
2022-11-03T14:31:47.938Z,3.97
2022-11-03T14:36:51.250Z,4.90
2022-11-03T14:42:06.646Z,5.90
2022-11-03T14:47:12.773Z,4.40
2022-11-03T14:52:16.948Z,5.37
2022-11-03T14:57:20.283Z,5.93
2022-11-03T15:02:25.075Z,5.88
2022-11-03T15:07:28.379Z,6.50
2022-11-03T15:12:31.692Z,5.07
2022-11-03T15:17:36.392Z,6.60
2022-11-03T15:28:02.986Z,5.70
2022-11-03T15:33:07.666Z,9.47
2022-11-03T15:38:10.990Z,10.60
2022-11-03T15:43:14.293Z,10.70
2022-11-03T15:48:18.950Z,13.60
2022-11-03T15:53:22.244Z,13.48
2022-11-03T15:58:25.578Z,9.70
2022-11-03T16:03:30.376Z,8.82
2022-11-03T16:08:33.749Z,6.83
2022-11-03T16:13:37.287Z,9.60
2022-11-03T16:18:42.012Z,7.37
2022-11-03T16:23:45.519Z,6.53
2022-11-03T16:28:48.915Z,16.52
2022-11-03T16:33:56.396Z,14.23
2022-11-03T16:38:59.720Z,12.13
2022-11-03T16:44:03.046Z,15.07
2022-11-03T16:49:07.689Z,13.82
2022-11-03T16:54:10.997Z,12.73
2022-11-03T16:59:14.358Z,11.90
2022-11-03T17:04:19.194Z,13.87
2022-11-03T17:09:22.593Z,12.50
2022-11-03T17:14:25.975Z,13.40
2022-11-03T19:06:15.174Z,13.20
2022-11-03T19:11:18.608Z,12.50
2022-11-03T19:16:23.515Z,13.33
2022-11-03T20:37:59.636Z,15.10
2022-11-03T23:12:37.174Z,10.70
2022-11-03T23:17:58.117Z,10.97
2022-11-03T23:23:01.525Z,11.90
2022-11-03T23:28:06.414Z,12.95
2022-11-03T23:33:09.916Z,16.27
2022-11-03T23:38:13.553Z,12.00
2022-11-03T23:58:49.047Z,9.80
